Time;durP1;ratioP1;P1;durP2;ratioP2;P2;SDS_P1;SDS_P2;PMS_P1;PMS_P2;Temp;Humidity;BMP_temperature;BMP_pressure;BME280_temperature;BME280_humidity;BME280_pressure;Samples;Min_cycle;Max_cycle;Signal;HPM_P1;HPM_P2
2023/10/04 00:01:46;;;;;;;4.60;3.80;;;16.80;99.90;;;;;;4956324;28;20503;-63
2023/10/04 00:04:12;;;;;;;5.30;4.07;;;16.80;99.90;;;;;;4957287;28;20508;-63
2023/10/04 00:06:40;;;;;;;4.03;3.70;;;16.80;99.90;;;;;;4956748;28;20809;-60
2023/10/04 00:09:05;;;;;;;5.73;3.80;;;16.80;99.90;;;;;;4965874;28;20533;-64
2023/10/04 00:11:31;;;;;;;5.57;4.13;;;16.80;99.90;;;;;;4975639;28;20467;-63
2023/10/04 00:13:57;;;;;;;4.43;4.07;;;16.70;99.90;;;;;;4974664;28;20180;-64
2023/10/04 00:16:24;;;;;;;8.40;4.20;;;16.70;99.90;;;;;;4975143;28;20544;-64
2023/10/04 00:18:49;;;;;;;6.73;4.77;;;16.70;99.90;;;;;;4975640;28;20794;-63
2023/10/04 00:21:15;;;;;;;4.33;3.83;;;16.70;99.90;;;;;;4976402;28;20486;-64
2023/10/04 00:23:41;;;;;;;5.13;3.60;;;16.70;99.90;;;;;;4972330;28;20184;-63
2023/10/04 00:26:10;;;;;;;4.90;3.57;;;16.70;99.90;;;;;;4975593;28;20459;-64
2023/10/04 00:28:38;;;;;;;3.73;3.53;;;16.70;99.90;;;;;;4974975;28;20310;-61
2023/10/04 00:31:05;;;;;;;6.10;3.57;;;16.70;99.90;;;;;;4975473;28;20927;-64
2023/10/04 00:33:31;;;;;;;7.10;4.37;;;16.70;99.90;;;;;;4975142;28;20424;-64
2023/10/04 00:36:03;;;;;;;4.90;3.90;;;16.70;99.90;;;;;;4974797;28;20424;-63
2023/10/04 00:38:30;;;;;;;4.90;4.30;;;16.70;99.90;;;;;;4975507;28;20494;-64
2023/10/04 00:40:56;;;;;;;4.03;3.70;;;16.70;99.90;;;;;;4975118;28;20470;-63
2023/10/04 00:43:22;;;;;;;4.23;3.80;;;16.70;99.90;;;;;;4975015;28;20439;-64
2023/10/04 00:45:49;;;;;;;4.30;3.90;;;16.70;99.90;;;;;;4975061;28;20208;-63
2023/10/04 00:48:20;;;;;;;5.63;3.70;;;16.70;99.90;;;;;;4975742;28;20871;-64
2023/10/04 00:50:47;;;;;;;4.87;4.10;;;16.70;99.90;;;;;;4946020;28;20428;-63
2023/10/04 00:53:14;;;;;;;5.60;3.93;;;16.70;99.90;;;;;;4957522;28;20436;-63
2023/10/04 00:55:42;;;;;;;5.40;3.93;;;16.60;99.90;;;;;;4973732;28;20470;-60
2023/10/04 00:58:10;;;;;;;4.10;3.70;;;16.60;99.90;;;;;;4975807;28;20444;-64
2023/10/04 01:00:38;;;;;;;4.17;3.80;;;16.60;99.90;;;;;;4975591;28;20914;-64
2023/10/04 01:03:07;;;;;;;5.10;3.93;;;16.60;99.90;;;;;;4974131;28;20423;-64
2023/10/04 01:05:38;;;;;;;6.37;4.43;;;16.50;99.90;;;;;;4967939;28;20464;-64
2023/10/04 01:08:05;;;;;;;6.50;3.70;;;16.50;99.90;;;;;;4966477;28;20412;-64
2023/10/04 01:10:33;;;;;;;4.50;4.20;;;16.50;99.90;;;;;;4975361;28;20463;-64
2023/10/04 01:13:01;;;;;;;4.47;4.03;;;16.50;99.90;;;;;;4973707;28;20435;-64
2023/10/04 01:15:30;;;;;;;4.00;3.70;;;16.50;99.90;;;;;;4974370;28;20420;-63
2023/10/04 01:17:58;;;;;;;4.77;4.07;;;16.40;99.90;;;;;;4974132;28;20435;-63
2023/10/04 01:20:33;;;;;;;4.47;3.53;;;16.40;99.90;;;;;;4975127;28;20411;-63
2023/10/04 01:23:06;;;;;;;6.77;3.70;;;16.50;99.90;;;;;;4973419;28;20446;-63
2023/10/04 01:25:37;;;;;;;4.87;4.20;;;16.50;99.90;;;;;;4974766;28;20478;-63
2023/10/04 01:28:17;;;;;;;4.33;4.03;;;16.50;99.90;;;;;;4952529;28;20468;-64
2023/10/04 01:30:48;;;;;;;4.67;4.23;;;16.50;99.90;;;;;;4955170;28;20409;-60
2023/10/04 01:33:18;;;;;;;4.20;3.90;;;16.50;99.90;;;;;;4954868;28;20439;-64
2023/10/04 01:35:45;;;;;;;3.77;3.50;;;16.50;99.90;;;;;;4954879;28;20443;-63
2023/10/04 01:38:13;;;;;;;4.20;3.80;;;16.50;99.90;;;;;;4955413;28;20428;-63
2023/10/04 01:40:39;;;;;;;5.00;4.37;;;16.50;99.90;;;;;;4955537;28;20499;-64
2023/10/04 01:43:24;;;;;;;5.67;4.07;;;16.50;99.90;;;;;;4952777;28;20468;-64
2023/10/04 01:45:51;;;;;;;3.97;3.57;;;16.50;99.90;;;;;;4954513;28;20449;-63
2023/10/04 01:48:20;;;;;;;4.07;3.40;;;16.50;99.90;;;;;;4955377;28;20858;-64
2023/10/04 01:50:52;;;;;;;5.93;4.10;;;16.50;99.90;;;;;;4954552;28;20405;-63
2023/10/04 01:53:21;;;;;;;4.30;3.90;;;16.50;99.90;;;;;;4954520;28;20840;-64
2023/10/04 01:55:47;;;;;;;9.63;4.00;;;16.50;99.90;;;;;;4954078;28;20435;-63
2023/10/04 01:58:14;;;;;;;5.73;3.80;;;16.40;99.90;;;;;;4953085;29;20425;-63
2023/10/04 02:00:40;;;;;;;4.50;4.10;;;16.40;99.90;;;;;;4954530;28;20428;-64
2023/10/04 02:03:09;;;;;;;6.03;3.73;;;16.40;99.90;;;;;;4936505;29;20464;-64
2023/10/04 02:05:40;;;;;;;4.63;4.27;;;16.40;99.90;;;;;;4954781;28;20461;-63
2023/10/04 02:08:10;;;;;;;6.70;4.53;;;16.40;99.90;;;;;;4954021;28;20397;-64
2023/10/04 02:10:44;;;;;;;6.27;4.33;;;16.40;99.90;;;;;;4954939;28;20401;-64
2023/10/04 02:13:14;;;;;;;3.67;3.37;;;16.40;99.90;;;;;;4953619;28;20429;-63
2023/10/04 02:15:42;;;;;;;6.40;3.97;;;16.50;99.90;;;;;;4953686;29;20779;-64
2023/10/04 02:18:08;;;;;;;5.23;4.37;;;16.50;99.90;;;;;;4954309;28;20516;-64
2023/10/04 02:20:34;;;;;;;4.03;3.73;;;16.50;99.90;;;;;;4954681;28;20425;-64
2023/10/04 02:23:03;;;;;;;5.07;4.03;;;16.50;99.90;;;;;;4951783;29;20531;-63
2023/10/04 02:25:29;;;;;;;4.40;3.83;;;16.50;99.90;;;;;;4954670;28;20464;-64
2023/10/04 02:28:08;;;;;;;11.30;3.97;;;16.60;99.90;;;;;;4964877;28;20472;-64
2023/10/04 02:30:34;;;;;;;5.60;3.87;;;16.60;99.90;;;;;;4959563;28;20777;-64
2023/10/04 02:33:01;;;;;;;4.17;3.77;;;16.60;99.90;;;;;;4969551;28;20464;-64
2023/10/04 02:35:28;;;;;;;5.63;3.67;;;16.60;99.90;;;;;;4962552;28;20470;-64
2023/10/04 02:38:01;;;;;;;5.50;4.00;;;16.60;99.90;;;;;;4973054;28;20172;-63
2023/10/04 02:40:27;;;;;;;5.00;4.60;;;16.40;99.90;;;;;;4973093;28;20775;-63
2023/10/04 02:42:55;;;;;;;5.33;4.60;;;16.40;99.90;;;;;;4971816;28;20471;-64
2023/10/04 02:45:21;;;;;;;5.13;4.30;;;16.50;99.90;;;;;;4973640;28;20491;-64
2023/10/04 02:47:48;;;;;;;6.60;4.70;;;16.50;99.90;;;;;;4973133;28;20408;-59
2023/10/04 02:50:19;;;;;;;8.87;4.47;;;16.50;99.90;;;;;;4973378;28;20462;-64
2023/10/04 02:52:45;;;;;;;5.00;4.57;;;16.50;99.90;;;;;;4972483;28;20531;-60
2023/10/04 02:55:15;;;;;;;6.40;4.70;;;16.50;99.90;;;;;;4973175;28;20400;-64
2023/10/04 02:57:42;;;;;;;5.03;4.10;;;16.40;99.90;;;;;;4972991;28;20436;-64
2023/10/04 03:00:13;;;;;;;5.20;3.93;;;16.40;99.90;;;;;;4972798;28;20496;-64
2023/10/04 03:02:38;;;;;;;4.67;4.30;;;16.30;99.90;;;;;;4973019;28;20921;-64
2023/10/04 03:05:06;;;;;;;5.33;4.90;;;16.30;99.90;;;;;;4972402;28;20420;-64
2023/10/04 03:07:32;;;;;;;4.93;4.43;;;16.30;99.90;;;;;;4955456;28;20205;-63
2023/10/04 03:09:58;;;;;;;7.37;4.50;;;16.30;99.90;;;;;;4972626;28;20765;-63
2023/10/04 03:12:24;;;;;;;5.80;5.30;;;16.30;99.90;;;;;;4972980;28;20208;-64
2023/10/04 03:14:50;;;;;;;4.73;4.33;;;16.30;99.90;;;;;;4972672;28;20411;-61
2023/10/04 03:17:16;;;;;;;6.73;4.80;;;16.40;99.90;;;;;;4973236;28;20962;-63
2023/10/04 03:19:43;;;;;;;5.50;4.47;;;16.40;99.90;;;;;;4977355;28;20457;-63
2023/10/04 03:22:10;;;;;;;5.37;4.90;;;16.40;99.90;;;;;;4975595;28;20412;-63
2023/10/04 03:24:36;;;;;;;5.60;4.47;;;16.40;99.90;;;;;;4977182;28;20412;-64
2023/10/04 03:27:05;;;;;;;8.33;5.40;;;16.50;99.90;;;;;;4976270;28;20529;-63
2023/10/04 03:29:31;;;;;;;5.03;4.63;;;16.40;99.90;;;;;;4977529;28;20400;-63
2023/10/04 03:31:56;;;;;;;6.10;4.70;;;16.50;99.90;;;;;;4976419;28;20422;-63
2023/10/04 03:34:25;;;;;;;6.50;5.07;;;16.50;99.90;;;;;;4977154;28;20407;-63
2023/10/04 03:36:51;;;;;;;5.00;4.60;;;16.50;99.90;;;;;;4963782;28;20192;-60
2023/10/04 03:39:16;;;;;;;7.23;5.23;;;16.50;99.90;;;;;;4977099;28;20415;-63
2023/10/04 03:41:42;;;;;;;7.30;4.80;;;16.50;99.90;;;;;;4975960;28;20442;-63
2023/10/04 03:44:09;;;;;;;6.53;5.37;;;16.50;99.90;;;;;;4976061;28;20183;-64
2023/10/04 03:46:34;;;;;;;5.27;4.77;;;16.50;99.90;;;;;;4976936;28;20219;-63
2023/10/04 03:49:02;;;;;;;5.57;5.03;;;16.60;99.90;;;;;;4976109;28;20419;-64
2023/10/04 03:51:28;;;;;;;5.53;4.93;;;16.50;99.90;;;;;;4977086;28;20173;-62
2023/10/04 03:53:54;;;;;;;4.90;4.43;;;16.50;99.90;;;;;;4958654;28;20465;-63
2023/10/04 03:56:22;;;;;;;5.50;5.00;;;16.60;99.90;;;;;;4976718;28;20509;-63
2023/10/04 03:58:48;;;;;;;13.20;6.60;;;16.60;99.90;;;;;;4976501;28;20908;-64
2023/10/04 04:01:15;;;;;;;6.80;4.90;;;16.60;99.90;;;;;;4975611;28;20430;-63
2023/10/04 04:03:40;;;;;;;4.97;4.40;;;16.60;99.90;;;;;;4976251;28;20837;-63
2023/10/04 04:06:07;;;;;;;6.03;5.00;;;16.60;99.90;;;;;;4975755;28;20458;-63
2023/10/04 04:08:33;;;;;;;5.97;5.50;;;16.60;99.90;;;;;;4942725;28;20184;-64
2023/10/04 04:11:01;;;;;;;4.73;3.80;;;16.60;99.90;;;;;;4975666;28;20474;-63
2023/10/04 04:13:27;;;;;;;5.83;5.33;;;16.60;99.90;;;;;;4958981;28;20930;-63
2023/10/04 04:15:53;;;;;;;6.70;5.50;;;16.60;99.90;;;;;;4958446;28;20467;-60
2023/10/04 04:18:22;;;;;;;7.87;4.73;;;16.60;99.90;;;;;;4975402;28;20637;-64
2023/10/04 04:20:49;;;;;;;6.27;4.20;;;16.60;99.90;;;;;;4977019;28;20252;-65
2023/10/04 04:23:15;;;;;;;6.73;4.37;;;16.60;99.90;;;;;;4967791;28;20427;-64
2023/10/04 04:25:42;;;;;;;8.83;4.30;;;16.60;99.90;;;;;;4972792;28;20485;-64
2023/10/04 04:28:12;;;;;;;6.87;5.33;;;16.50;99.90;;;;;;4974642;28;20563;-65
2023/10/04 04:30:38;;;;;;;4.93;4.03;;;16.50;99.90;;;;;;4976517;28;20903;-65
2023/10/04 04:33:06;;;;;;;6.43;4.30;;;16.50;99.90;;;;;;4976135;28;20412;-64
2023/10/04 04:38:30;;;;;;;5.53;5.03;;;16.50;99.90;;;;;;4974639;28;20970;-64
2023/10/04 04:40:56;;;;;;;4.97;4.40;;;16.60;99.90;;;;;;4964889;28;20523;-64
2023/10/04 04:45:53;;;;;;;9.53;5.80;;;16.60;99.90;;;;;;4976191;28;20463;-65
2023/10/04 04:48:23;;;;;;;6.30;4.80;;;16.60;99.90;;;;;;4976283;28;20419;-64
2023/10/04 04:50:54;;;;;;;9.30;4.53;;;16.60;99.90;;;;;;4976153;28;20492;-64
2023/10/04 04:53:27;;;;;;;6.33;4.83;;;16.60;99.90;;;;;;4976194;28;20461;-64
2023/10/04 04:55:54;;;;;;;5.13;4.60;;;16.50;99.90;;;;;;4963941;28;20511;-63
2023/10/04 04:58:21;;;;;;;5.57;5.00;;;16.60;99.90;;;;;;4974108;28;20768;-64
2023/10/04 05:00:56;;;;;;;6.40;5.40;;;16.60;99.90;;;;;;4976030;28;20412;-64
2023/10/04 05:03:26;;;;;;;6.87;4.50;;;16.60;99.90;;;;;;4975772;28;20428;-64
2023/10/04 05:05:55;;;;;;;5.97;5.40;;;16.50;99.90;;;;;;4975770;28;20876;-60
2023/10/04 05:08:22;;;;;;;7.97;6.40;;;16.50;99.90;;;;;;4975692;28;20494;-64
2023/10/04 05:10:50;;;;;;;9.13;5.13;;;16.50;99.90;;;;;;4975438;28;20495;-64
2023/10/04 05:13:18;;;;;;;6.17;5.57;;;16.40;99.90;;;;;;4971704;28;20424;-64
2023/10/04 05:15:45;;;;;;;7.03;5.60;;;16.40;99.90;;;;;;4969192;28;20424;-65
2023/10/04 05:18:15;;;;;;;6.77;5.40;;;16.40;99.90;;;;;;4955686;29;20417;-64
2023/10/04 05:20:53;;;;;;;5.90;5.40;;;16.40;99.90;;;;;;4956419;29;20401;-64
2023/10/04 05:23:21;;;;;;;5.90;5.07;;;16.40;99.90;;;;;;4971982;28;20435;-64
2023/10/04 05:25:48;;;;;;;6.77;6.20;;;16.40;99.90;;;;;;4957485;28;20459;-64
2023/10/04 05:28:14;;;;;;;5.77;4.50;;;16.40;99.90;;;;;;4974302;28;20530;-65
2023/10/04 05:30:42;;;;;;;6.67;5.77;;;16.30;99.90;;;;;;4972284;28;20510;-64
2023/10/04 05:33:08;;;;;;;6.77;5.87;;;16.30;99.90;;;;;;4963629;28;20502;-62
2023/10/04 05:35:35;;;;;;;7.00;6.33;;;16.30;99.90;;;;;;4968234;28;20439;-65
2023/10/04 05:38:05;;;;;;;7.93;5.40;;;16.30;99.90;;;;;;4974636;28;20426;-64
2023/10/04 05:40:45;;;;;;;5.93;5.27;;;16.30;99.90;;;;;;4974761;28;20762;-64
2023/10/04 05:43:12;;;;;;;10.83;6.73;;;16.40;99.90;;;;;;4974657;28;20427;-64
2023/10/04 05:45:37;;;;;;;9.03;5.83;;;16.40;99.90;;;;;;4974335;28;20509;-64
2023/10/04 05:48:05;;;;;;;15.20;6.37;;;16.40;99.90;;;;;;4974786;28;20424;-64
2023/10/04 05:50:32;;;;;;;8.20;7.40;;;16.30;99.90;;;;;;4974922;28;20784;-65
2023/10/04 05:53:01;;;;;;;6.70;5.67;;;16.30;99.90;;;;;;4957001;28;20412;-64
2023/10/04 05:55:27;;;;;;;6.70;6.00;;;16.30;99.90;;;;;;4957915;28;20923;-65
2023/10/04 05:57:53;;;;;;;10.00;6.90;;;16.40;99.90;;;;;;4974246;28;20498;-64
2023/10/04 06:00:33;;;;;;;10.20;7.03;;;16.40;99.90;;;;;;4973725;28;20184;-64
2023/10/04 06:03:18;;;;;;;8.07;6.60;;;16.30;99.90;;;;;;4973973;28;20157;-64
2023/10/04 06:05:44;;;;;;;9.93;7.63;;;16.30;99.90;;;;;;4974748;28;20455;-64
2023/10/04 06:08:15;;;;;;;8.20;7.40;;;16.30;99.90;;;;;;4973752;28;20423;-65
2023/10/04 06:10:45;;;;;;;10.70;8.20;;;16.40;99.90;;;;;;4974053;28;20412;-65
2023/10/04 06:13:13;;;;;;;11.20;7.40;;;16.40;99.90;;;;;;4956640;28;20758;-65
2023/10/04 06:15:44;;;;;;;9.70;7.50;;;16.40;99.90;;;;;;4973310;28;20801;-64
2023/10/04 06:18:14;;;;;;;9.90;7.47;;;16.40;99.90;;;;;;4972743;28;20439;-64
2023/10/04 06:20:40;;;;;;;8.73;7.90;;;16.40;99.90;;;;;;4974537;28;20409;-65
2023/10/04 06:23:11;;;;;;;10.50;7.87;;;16.40;99.90;;;;;;4973879;28;20407;-64
2023/10/04 06:25:41;;;;;;;10.20;8.30;;;16.50;99.90;;;;;;4974069;28;20751;-65
2023/10/04 06:28:09;;;;;;;10.67;8.03;;;16.50;99.90;;;;;;4970510;28;20544;-65
2023/10/04 06:30:36;;;;;;;10.10;7.57;;;16.50;99.90;;;;;;4968008;28;20450;-64
2023/10/04 06:33:04;;;;;;;9.80;8.13;;;16.50;99.90;;;;;;4961337;28;20420;-64
2023/10/04 06:35:32;;;;;;;12.60;8.63;;;16.50;99.90;;;;;;4964659;28;20430;-64
2023/10/04 06:38:06;;;;;;;11.80;7.97;;;16.50;99.90;;;;;;4963767;28;20431;-61
2023/10/04 06:40:31;;;;;;;9.13;7.13;;;16.50;99.90;;;;;;4971482;28;20511;-64
2023/10/04 06:43:04;;;;;;;8.93;8.00;;;16.50;99.90;;;;;;4971148;28;20586;-64
2023/10/04 06:45:30;;;;;;;8.10;7.40;;;16.40;99.90;;;;;;4969023;28;20173;-65
2023/10/04 06:47:57;;;;;;;8.37;7.40;;;16.50;99.90;;;;;;4961858;28;20423;-65
2023/10/04 06:50:35;;;;;;;10.73;6.77;;;16.50;99.90;;;;;;4969369;28;20451;-65
2023/10/04 06:53:03;;;;;;;8.47;7.43;;;16.50;99.90;;;;;;4971967;28;20430;-65
2023/10/04 06:55:30;;;;;;;11.90;7.50;;;16.50;99.90;;;;;;4944197;29;20449;-65
2023/10/04 06:57:56;;;;;;;7.73;6.93;;;16.60;99.90;;;;;;4943141;28;20415;-65
2023/10/04 07:00:30;;;;;;;9.53;8.30;;;16.60;99.90;;;;;;4955351;28;20412;-64
2023/10/04 07:02:59;;;;;;;9.47;7.90;;;16.60;99.90;;;;;;4974082;28;20736;-64
2023/10/04 07:05:31;;;;;;;8.00;7.20;;;16.70;99.90;;;;;;4973808;28;20494;-64
2023/10/04 07:07:57;;;;;;;10.13;7.47;;;16.70;99.90;;;;;;4961187;28;20453;-64
2023/10/04 07:10:28;;;;;;;8.87;7.33;;;16.70;99.90;;;;;;4964320;28;20526;-66
2023/10/04 07:12:56;;;;;;;8.03;6.47;;;16.80;99.90;;;;;;4972454;28;20428;-64
2023/10/04 07:15:24;;;;;;;7.77;6.97;;;17.00;99.90;;;;;;4954728;28;20499;-67
2023/10/04 07:17:50;;;;;;;10.43;7.63;;;17.30;99.90;;;;;;4971570;28;20938;-68
2023/10/04 07:20:18;;;;;;;9.77;6.83;;;17.50;99.90;;;;;;4973213;28;20915;-69
2023/10/04 07:22:45;;;;;;;7.53;6.83;;;17.80;99.90;;;;;;4973551;28;20747;-80
2023/10/04 07:25:12;;;;;;;9.77;7.67;;;18.00;99.90;;;;;;4970248;28;20884;-66
2023/10/04 07:27:43;;;;;;;7.47;6.70;;;18.10;99.90;;;;;;4973093;28;20910;-62
2023/10/04 07:30:13;;;;;;;8.90;8.07;;;18.00;99.90;;;;;;4972902;28;20962;-62
2023/10/04 07:32:41;;;;;;;7.83;7.00;;;18.00;99.90;;;;;;4953267;28;20423;-62
2023/10/04 07:35:13;;;;;;;8.20;7.10;;;17.80;99.90;;;;;;4958910;28;20417;-62
2023/10/04 07:37:40;;;;;;;14.83;7.67;;;17.70;99.90;;;;;;4960504;28;20424;-63
2023/10/04 07:40:09;;;;;;;12.00;7.17;;;17.60;99.90;;;;;;4967084;28;20448;-63
2023/10/04 07:42:38;;;;;;;8.17;7.33;;;17.50;99.90;;;;;;4971723;28;20424;-63
2023/10/04 07:45:07;;;;;;;9.27;6.90;;;17.40;99.90;;;;;;4968506;28;20496;-71
2023/10/04 07:47:37;;;;;;;7.13;6.43;;;17.30;99.90;;;;;;4969899;28;20447;-73
2023/10/04 07:50:09;;;;;;;10.07;7.20;;;17.30;99.90;;;;;;4965923;28;20443;-73
2023/10/04 07:52:45;;;;;;;8.20;6.53;;;17.30;99.90;;;;;;4965828;28;20415;-74
2023/10/04 07:55:14;;;;;;;8.00;6.40;;;17.20;99.90;;;;;;4964401;28;20895;-73
2023/10/04 07:57:44;;;;;;;11.00;6.93;;;17.20;99.90;;;;;;4967028;28;20496;-74
2023/10/04 08:00:14;;;;;;;10.30;7.63;;;17.20;99.90;;;;;;4968707;28;20482;-74
2023/10/04 08:02:50;;;;;;;11.13;8.17;;;17.20;99.90;;;;;;4966623;28;20522;-75
2023/10/04 08:05:20;;;;;;;15.17;7.33;;;17.10;99.90;;;;;;4964785;28;20881;-74
2023/10/04 08:07:51;;;;;;;7.60;6.70;;;17.10;99.90;;;;;;4956013;28;20875;-72
2023/10/04 08:10:17;;;;;;;9.17;7.50;;;17.10;99.90;;;;;;4965967;28;20754;-66
2023/10/04 08:12:44;;;;;;;9.30;7.17;;;17.10;99.90;;;;;;4964547;28;20919;-70
2023/10/04 08:15:15;;;;;;;9.20;8.30;;;17.10;99.90;;;;;;4970739;28;20416;-72
2023/10/04 08:17:47;;;;;;;15.43;11.83;;;17.30;99.90;;;;;;4971610;28;20439;-71
2023/10/04 08:20:14;;;;;;;10.13;7.87;;;17.50;99.90;;;;;;4969786;28;20400;-72
2023/10/04 08:22:44;;;;;;;13.60;10.17;;;17.70;99.90;;;;;;4970830;28;20943;-71
2023/10/04 08:25:13;;;;;;;12.90;9.50;;;17.90;99.90;;;;;;4942257;28;20503;-71
2023/10/04 08:27:39;;;;;;;10.37;8.73;;;18.20;99.90;;;;;;4975216;28;20998;-71
2023/10/04 08:30:06;;;;;;;12.70;9.87;;;18.30;99.90;;;;;;4974166;28;20949;-68
2023/10/04 08:32:33;;;;;;;14.17;12.23;;;18.40;99.90;;;;;;4965149;28;20513;-70
2023/10/04 08:35:03;;;;;;;11.53;10.30;;;18.60;99.90;;;;;;4975891;28;20420;-75
2023/10/04 08:37:30;;;;;;;10.37;9.37;;;18.60;99.90;;;;;;4969474;28;20420;-71
2023/10/04 08:39:56;;;;;;;12.40;10.80;;;18.80;99.90;;;;;;4956998;29;20871;-72
2023/10/04 08:42:25;;;;;;;10.47;8.40;;;18.90;99.90;;;;;;4943429;28;20552;-71
2023/10/04 08:44:52;;;;;;;10.67;9.33;;;18.90;99.90;;;;;;4965994;28;20181;-71
2023/10/04 08:47:18;;;;;;;76.67;58.03;;;19.00;99.90;;;;;;4955857;29;20456;-72
2023/10/04 08:49:50;;;;;;;77.13;68.50;;;19.00;99.90;;;;;;4970268;28;20419;-72
2023/10/04 08:52:36;;;;;;;19.90;16.00;;;18.80;99.90;;;;;;4969954;28;20757;-72
2023/10/04 08:55:07;;;;;;;9.13;8.23;;;18.90;99.90;;;;;;4969408;28;20409;-72
2023/10/04 08:57:39;;;;;;;12.87;11.43;;;19.00;99.90;;;;;;4968182;28;20423;-72
2023/10/04 09:00:13;;;;;;;13.33;11.77;;;19.00;99.90;;;;;;4969164;28;20435;-71
2023/10/04 09:02:45;;;;;;;12.40;8.77;;;19.00;99.90;;;;;;4969049;28;20413;-72
2023/10/04 09:05:23;;;;;;;10.57;7.50;;;19.10;99.90;;;;;;4969673;28;20408;-72
2023/10/04 09:07:53;;;;;;;9.53;7.87;;;19.10;99.90;;;;;;4970343;28;20466;-71
2023/10/04 09:10:20;;;;;;;7.20;6.60;;;19.10;99.90;;;;;;4955643;28;20421;-71
2023/10/04 09:12:49;;;;;;;8.43;7.53;;;19.10;99.90;;;;;;4967024;28;20415;-71
2023/10/04 09:15:15;;;;;;;12.13;6.70;;;19.10;99.90;;;;;;4963919;28;20413;-71
2023/10/04 09:17:55;;;;;;;9.50;7.07;;;19.20;99.90;;;;;;4966983;28;20945;-71
2023/10/04 09:20:30;;;;;;;11.13;6.93;;;19.20;99.90;;;;;;4971855;28;20403;-72
2023/10/04 09:22:56;;;;;;;13.33;11.90;;;19.30;99.90;;;;;;4969040;28;20403;-71
2023/10/04 09:25:22;;;;;;;11.50;8.23;;;19.40;99.90;;;;;;4972397;28;20954;-71
2023/10/04 09:27:57;;;;;;;9.63;6.87;;;19.50;99.90;;;;;;4973887;28;20474;-72
2023/10/04 09:30:24;;;;;;;28.50;22.83;;;19.70;99.90;;;;;;4964925;28;20403;-72
2023/10/04 09:32:51;;;;;;;25.13;22.33;;;19.80;99.90;;;;;;4967846;28;20424;-72
2023/10/04 09:35:20;;;;;;;9.70;8.80;;;19.90;99.90;;;;;;4969310;28;20413;-72
2023/10/04 09:37:50;;;;;;;9.27;7.80;;;20.00;99.90;;;;;;4964092;28;20412;-72
2023/10/04 09:40:17;;;;;;;7.63;7.03;;;19.90;99.90;;;;;;4965813;28;20416;-72
2023/10/04 09:42:55;;;;;;;14.27;8.47;;;20.00;99.90;;;;;;4954732;28;20419;-73
2023/10/04 09:45:26;;;;;;;7.97;7.27;;;20.00;99.90;;;;;;4968286;28;20762;-73
2023/10/04 09:47:55;;;;;;;15.23;8.47;;;20.00;99.90;;;;;;4971466;28;20447;-73
2023/10/04 09:50:25;;;;;;;8.97;7.90;;;20.10;99.90;;;;;;4967459;28;20501;-73
2023/10/04 09:52:52;;;;;;;9.10;7.20;;;20.10;99.90;;;;;;4956151;28;20424;-73
2023/10/04 09:55:22;;;;;;;6.53;5.93;;;20.20;99.90;;;;;;4968749;28;20772;-72
2023/10/04 09:57:48;;;;;;;10.10;7.07;;;20.30;99.90;;;;;;4962098;28;20424;-71
2023/10/04 10:00:17;;;;;;;10.00;8.10;;;20.40;99.90;;;;;;4963271;28;20412;-72
2023/10/04 10:02:48;;;;;;;8.13;7.30;;;20.40;99.90;;;;;;4966751;28;20420;-72
2023/10/04 10:05:24;;;;;;;8.13;7.33;;;20.60;99.90;;;;;;4955547;28;20912;-72
2023/10/04 10:07:52;;;;;;;7.90;6.77;;;20.70;99.90;;;;;;4969896;28;20497;-71
2023/10/04 10:10:20;;;;;;;6.93;6.23;;;20.60;99.90;;;;;;4962959;28;20524;-72
2023/10/04 10:12:51;;;;;;;6.87;6.03;;;20.60;99.90;;;;;;4970170;28;20440;-72
2023/10/04 10:15:18;;;;;;;8.63;7.10;;;20.70;99.90;;;;;;4965756;28;20792;-72
2023/10/04 10:17:46;;;;;;;6.73;6.00;;;20.70;99.90;;;;;;4971061;28;20903;-72
2023/10/04 10:20:15;;;;;;;7.10;6.50;;;20.80;99.90;;;;;;4953800;28;20931;-72
2023/10/04 10:22:59;;;;;;;7.47;6.77;;;20.90;99.90;;;;;;4968217;28;20499;-72
2023/10/04 10:25:33;;;;;;;8.77;6.50;;;20.90;99.90;;;;;;4970275;28;20463;-72
2023/10/04 10:28:02;;;;;;;6.80;6.30;;;21.00;99.90;;;;;;4966680;28;20504;-71
2023/10/04 10:30:31;;;;;;;8.57;5.90;;;21.00;99.90;;;;;;4968498;28;20427;-71
2023/10/04 10:32:59;;;;;;;6.80;5.23;;;20.90;99.90;;;;;;4972202;28;20467;-74
2023/10/04 10:35:48;;;;;;;8.33;6.63;;;20.90;99.90;;;;;;4953021;28;20788;-72
2023/10/04 10:38:43;;;;;;;6.30;5.40;;;20.80;98.50;;;;;;4969329;28;20420;-72
2023/10/04 10:41:30;;;;;;;6.93;6.43;;;20.80;97.90;;;;;;4954076;28;20440;-72
2023/10/04 10:44:14;;;;;;;7.13;5.90;;;20.80;99.10;;;;;;4969444;28;20419;-72
2023/10/04 10:47:02;;;;;;;6.57;6.03;;;20.80;99.90;;;;;;4967086;28;20970;-72
2023/10/04 10:49:44;;;;;;;5.40;4.90;;;20.80;99.20;;;;;;4965181;28;20412;-72
2023/10/04 10:52:41;;;;;;;6.90;6.23;;;20.80;97.70;;;;;;4973864;28;20428;-72
2023/10/04 10:55:19;;;;;;;6.00;5.50;;;20.80;98.90;;;;;;4973989;28;20450;-73
2023/10/04 10:57:48;;;;;;;237.67;195.40;;;20.80;98.80;;;;;;4974238;28;20427;-72
2023/10/04 11:00:22;;;;;;;227.90;196.83;;;20.90;99.40;;;;;;4956043;28;20454;-73
2023/10/04 11:02:53;;;;;;;13.47;11.43;;;20.90;96.70;;;;;;4973576;28;20432;-73
2023/10/04 11:05:20;;;;;;;7.63;6.87;;;20.90;97.10;;;;;;4971861;28;20466;-73
2023/10/04 11:07:48;;;;;;;9.07;7.37;;;20.90;97.40;;;;;;4958856;28;20591;-73
2023/10/04 11:10:15;;;;;;;6.30;5.00;;;20.90;97.30;;;;;;4953993;29;20471;-72
2023/10/04 11:12:50;;;;;;;9.50;8.60;;;20.90;97.60;;;;;;4956637;28;20416;-72
2023/10/04 11:15:20;;;;;;;6.90;6.30;;;20.90;98.30;;;;;;4971175;28;20420;-66
2023/10/04 11:17:47;;;;;;;6.70;6.00;;;20.90;95.70;;;;;;4953186;29;20409;-72
2023/10/04 11:20:17;;;;;;;6.33;5.63;;;20.90;96.70;;;;;;4968550;28;20424;-67
2023/10/04 11:22:44;;;;;;;6.97;5.60;;;20.90;95.70;;;;;;4973397;28;20892;-74
2023/10/04 11:25:12;;;;;;;6.93;6.07;;;20.90;95.70;;;;;;4973154;28;20420;-76
2023/10/04 11:27:42;;;;;;;8.00;6.40;;;20.90;96.30;;;;;;4971728;28;20474;-73
2023/10/04 11:30:10;;;;;;;6.60;6.00;;;20.90;98.20;;;;;;4954952;28;20432;-73
2023/10/04 11:32:40;;;;;;;6.93;5.73;;;21.00;96.80;;;;;;4967016;28;20534;-73
2023/10/04 11:35:11;;;;;;;6.17;5.67;;;21.10;97.10;;;;;;4973067;28;20423;-74
2023/10/04 11:37:50;;;;;;;7.83;5.50;;;21.10;97.30;;;;;;4972745;28;20404;-69
2023/10/04 11:40:27;;;;;;;169.73;135.07;;;21.20;97.80;;;;;;4976561;28;20399;-67
2023/10/04 11:43:00;;;;;;;78.47;54.77;;;21.30;96.50;;;;;;4959303;28;20486;-73
2023/10/04 11:45:26;;;;;;;9.60;6.77;;;21.40;96.90;;;;;;4975527;28;20986;-72
2023/10/04 11:48:07;;;;;;;6.33;5.47;;;21.50;97.50;;;;;;4967927;28;20468;-73
2023/10/04 11:50:48;;;;;;;5.47;4.50;;;21.60;95.70;;;;;;4958491;28;20773;-72
2023/10/04 11:53:49;;;;;;;6.77;6.07;;;21.60;94.30;;;;;;4970096;28;20522;-66
2023/10/04 11:56:15;;;;;;;6.27;5.60;;;21.60;95.20;;;;;;4975659;28;20820;-65
2023/10/04 11:58:51;;;;;;;6.73;5.90;;;21.70;94.60;;;;;;4959486;28;20432;-72
2023/10/04 12:01:19;;;;;;;8.50;7.63;;;21.70;94.30;;;;;;4976043;28;20803;-66
2023/10/04 12:03:50;;;;;;;5.00;4.60;;;21.70;95.10;;;;;;4976401;28;20504;-65
2023/10/04 12:06:25;;;;;;;5.80;5.10;;;21.50;92.60;;;;;;4927334;28;20479;-65
2023/10/04 12:08:55;;;;;;;8.40;5.20;;;21.40;93.00;;;;;;4973227;28;20499;-66
2023/10/04 12:11:25;;;;;;;6.73;4.77;;;21.30;93.90;;;;;;4956283;28;20411;-64
2023/10/04 12:13:55;;;;;;;7.13;5.60;;;21.10;93.50;;;;;;4941966;28;20498;-66
2023/10/04 12:16:21;;;;;;;5.73;5.13;;;21.00;94.00;;;;;;4975432;28;20526;-65
2023/10/04 12:18:47;;;;;;;6.30;4.97;;;20.80;93.30;;;;;;4959309;28;20407;-66
2023/10/04 12:21:14;;;;;;;5.13;4.63;;;20.80;93.40;;;;;;4956633;28;20448;-65
2023/10/04 12:23:40;;;;;;;7.83;5.20;;;20.60;93.60;;;;;;4955494;28;20474;-66
2023/10/04 12:26:06;;;;;;;7.13;4.10;;;20.60;94.70;;;;;;4975085;28;20867;-66
2023/10/04 12:28:32;;;;;;;4.60;4.20;;;20.60;95.30;;;;;;4975689;28;20463;-67
2023/10/04 12:31:01;;;;;;;5.53;3.63;;;20.60;95.30;;;;;;4975976;28;20193;-65
2023/10/04 12:33:29;;;;;;;5.20;3.93;;;20.60;96.10;;;;;;4958392;28;20416;-66
2023/10/04 12:35:56;;;;;;;4.20;3.80;;;20.50;95.80;;;;;;4976496;28;20519;-65
2023/10/04 12:38:25;;;;;;;7.10;4.67;;;20.50;94.40;;;;;;4942494;28;20494;-66
2023/10/04 12:40:51;;;;;;;5.60;4.03;;;20.40;94.60;;;;;;4976377;28;20422;-66
2023/10/04 12:43:17;;;;;;;6.73;4.37;;;20.40;93.60;;;;;;4976007;28;20416;-66
2023/10/04 12:45:44;;;;;;;5.07;4.57;;;20.20;93.60;;;;;;4958096;28;20415;-66
2023/10/04 12:48:16;;;;;;;5.73;4.90;;;20.20;93.80;;;;;;4958554;28;20510;-66
2023/10/04 12:50:45;;;;;;;5.10;3.80;;;20.20;94.40;;;;;;4973944;28;20439;-66
2023/10/04 12:53:15;;;;;;;7.17;5.10;;;20.20;94.90;;;;;;4975865;28;20940;-67
2023/10/04 12:55:41;;;;;;;8.80;5.50;;;20.10;94.20;;;;;;4975789;28;20752;-66
2023/10/04 12:58:07;;;;;;;6.17;4.90;;;19.90;95.00;;;;;;4975072;28;20467;-66
2023/10/04 13:00:33;;;;;;;9.00;5.20;;;19.90;94.40;;;;;;4957995;28;20529;-66